Time;durP1;ratioP1;P1;durP2;ratioP2;P2;SDS_P1;SDS_P2;PMS_P1;PMS_P2;Temp;Humidity;BMP_temperature;BMP_pressure;BME280_temperature;BME280_humidity;BME280_pressure;Samples;Min_cycle;Max_cycle;Signal;HPM_P1;HPM_P2
2021/05/14 00:04:03;;;;;;;1.30;0.93;;;;;;;13.60;62.95;99278.31;10256682;28;20066;-61
2021/05/14 00:09:05;;;;;;;1.20;1.08;;;;;;;13.60;63.41;99275.66;10238726;28;20113;-61
2021/05/14 00:14:07;;;;;;;1.55;0.95;;;;;;;13.53;63.21;99274.66;10240905;28;20063;-62
2021/05/14 00:19:08;;;;;;;1.13;1.00;;;;;;;13.61;62.78;99270.13;10240173;28;20070;-62
2021/05/14 00:24:10;;;;;;;1.55;1.40;;;;;;;13.59;62.57;99255.28;10233152;28;20050;-61
2021/05/14 00:29:12;;;;;;;0.95;0.80;;;;;;;13.71;62.82;99272.66;10233508;28;20051;-61
2021/05/14 00:34:13;;;;;;;1.63;0.60;;;;;;;13.79;62.05;99259.25;10242310;28;20054;-60
2021/05/14 00:39:14;;;;;;;1.27;0.95;;;;;;;13.81;61.99;99260.94;10240360;28;20065;-60
2021/05/14 00:44:37;;;;;;;1.25;1.13;;;;;;;13.78;61.79;99262.97;10238438;28;20101;-61
2021/05/14 00:49:39;;;;;;;1.15;0.90;;;;;;;13.79;62.27;99250.41;10242917;28;20050;-61
2021/05/14 00:54:41;;;;;;;1.00;0.90;;;;;;;13.82;62.40;99249.25;10242492;28;20047;-61
2021/05/14 00:59:44;;;;;;;1.27;1.17;;;;;;;13.93;61.41;99256.91;10247947;28;20074;-61
2021/05/14 01:04:46;;;;;;;1.33;1.00;;;;;;;13.84;61.19;99255.25;10242385;28;20561;-61
2021/05/14 01:09:48;;;;;;;1.25;1.15;;;;;;;13.64;61.86;99266.28;10232720;28;20085;-61
2021/05/14 01:14:50;;;;;;;2.55;1.20;;;;;;;13.59;61.97;99268.66;10243410;28;20050;-61
2021/05/14 01:19:51;;;;;;;1.35;1.10;;;;;;;13.53;62.25;99267.47;10242743;28;20496;-62
2021/05/14 01:24:53;;;;;;;2.45;1.30;;;;;;;13.36;62.59;99263.09;10234846;28;20043;-61
2021/05/14 01:29:55;;;;;;;1.08;1.02;;;;;;;13.44;62.42;99265.81;10236192;28;20125;-61
2021/05/14 01:34:56;;;;;;;1.40;1.02;;;;;;;13.34;62.59;99260.59;10231673;28;20047;-61
2021/05/14 01:39:58;;;;;;;3.72;1.02;;;;;;;13.27;63.10;99254.25;10239304;28;20122;-62
2021/05/14 01:45:00;;;;;;;2.03;1.00;;;;;;;13.25;63.17;99254.38;10230260;28;20062;-62
2021/05/14 01:50:02;;;;;;;1.23;0.98;;;;;;;13.29;63.02;99256.75;10247504;28;20538;-63
2021/05/14 01:55:04;;;;;;;1.05;0.95;;;;;;;13.12;63.58;99255.88;10245133;28;20050;-62
2021/05/14 02:00:08;;;;;;;1.60;1.27;;;;;;;13.27;63.22;99254.25;10243555;28;20051;-62
2021/05/14 02:05:10;;;;;;;1.80;1.00;;;;;;;13.36;62.61;99260.44;10246226;28;20496;-61
2021/05/14 02:10:12;;;;;;;1.15;1.00;;;;;;;13.26;62.65;99258.72;10241170;28;20047;-62
2021/05/14 02:15:13;;;;;;;1.55;1.00;;;;;;;13.23;63.27;99252.88;10242072;28;20117;-63
2021/05/14 02:20:15;;;;;;;1.52;0.90;;;;;;;13.35;62.79;99256.09;10247602;28;20106;-61
2021/05/14 02:25:16;;;;;;;1.65;0.90;;;;;;;13.29;62.81;99254.91;10241198;28;20110;-62
2021/05/14 02:30:19;;;;;;;1.33;0.85;;;;;;;13.28;63.19;99255.88;10233104;28;20043;-62
2021/05/14 02:35:20;;;;;;;2.28;1.05;;;;;;;13.18;63.21;99249.84;10232395;28;20095;-62
2021/05/14 02:40:22;;;;;;;2.13;0.90;;;;;;;13.12;63.77;99261.22;10246940;28;20047;-62
2021/05/14 02:45:24;;;;;;;2.47;0.95;;;;;;;13.12;63.44;99266.56;10249152;28;20051;-62
2021/05/14 02:50:26;;;;;;;1.90;0.98;;;;;;;13.14;63.78;99264.56;10252052;28;20066;-64
2021/05/14 02:55:27;;;;;;;0.93;0.70;;;;;;;13.06;63.80;99258.19;10242177;28;20047;-61
2021/05/14 03:00:29;;;;;;;1.58;0.80;;;;;;;13.01;63.31;99265.84;10241849;28;20062;-61
2021/05/14 03:05:30;;;;;;;1.17;0.82;;;;;;;12.68;64.05;99248.91;10247516;28;20110;-61
2021/05/14 03:10:32;;;;;;;2.88;1.15;;;;;;;12.62;64.66;99252.22;10240162;28;20074;-61
2021/05/14 03:15:33;;;;;;;2.45;0.80;;;;;;;12.44;65.21;99266.50;10247894;28;20564;-61
2021/05/14 03:20:35;;;;;;;1.10;0.90;;;;;;;12.37;64.90;99271.66;10244679;28;20051;-60
2021/05/14 03:25:36;;;;;;;2.05;1.00;;;;;;;12.46;64.79;99277.00;10246066;28;20649;-61
2021/05/14 03:30:38;;;;;;;1.30;0.95;;;;;;;12.38;64.88;99268.00;10240150;28;20062;-61
2021/05/14 03:35:39;;;;;;;1.38;0.88;;;;;;;12.38;64.81;99270.66;10239889;28;20047;-61
2021/05/14 03:40:42;;;;;;;1.17;0.95;;;;;;;12.46;65.02;99266.34;10233587;28;20110;-64
2021/05/14 03:45:44;;;;;;;1.77;1.25;;;;;;;12.32;65.04;99271.25;10238077;28;20133;-61
2021/05/14 03:50:48;;;;;;;2.35;1.48;;;;;;;12.14;65.27;99273.19;10244107;28;20051;-62
2021/05/14 03:55:50;;;;;;;2.80;1.33;;;;;;;12.05;65.86;99280.28;10250204;28;20058;-61
2021/05/14 04:00:52;;;;;;;2.92;1.30;;;;;;;12.09;65.39;99270.97;10241902;28;20565;-61
2021/05/14 04:05:54;;;;;;;1.65;1.17;;;;;;;11.99;66.16;99276.44;10234532;28;20046;-61
2021/05/14 04:16:29;;;;;;;1.52;1.30;;;;;;;12.02;65.46;99273.47;10219326;28;20055;-61
2021/05/14 04:21:31;;;;;;;1.70;1.10;;;;;;;11.80;66.36;99284.56;10238202;28;20078;-62
2021/05/14 04:26:32;;;;;;;1.77;1.20;;;;;;;11.74;65.94;99288.72;10228750;28;20047;-61
2021/05/14 04:31:34;;;;;;;1.60;1.10;;;;;;;11.72;65.54;99293.34;10230883;28;20113;-60
2021/05/14 04:36:35;;;;;;;2.67;1.45;;;;;;;11.63;66.25;99291.59;10236963;28;20070;-60
2021/05/14 04:41:38;;;;;;;1.92;1.00;;;;;;;11.66;65.99;99281.50;10232542;28;20058;-60
2021/05/14 04:46:39;;;;;;;1.65;1.40;;;;;;;11.78;65.35;99299.91;10239644;28;20046;-61
2021/05/14 04:51:41;;;;;;;1.33;0.90;;;;;;;11.69;65.39;99296.31;10234185;28;20058;-61
2021/05/14 04:56:42;;;;;;;2.20;1.20;;;;;;;11.53;65.86;99293.50;10251720;28;20145;-62
2021/05/14 05:01:44;;;;;;;1.80;1.50;;;;;;;11.50;67.18;99297.34;10226380;28;20148;-61
2021/05/14 05:06:49;;;;;;;1.92;1.75;;;;;;;11.74;66.55;99303.84;10229420;28;20055;-61
2021/05/14 05:11:51;;;;;;;2.10;1.77;;;;;;;11.72;66.46;99316.50;10242597;28;20066;-61
2021/05/14 05:16:53;;;;;;;4.15;1.23;;;;;;;11.67;66.62;99315.13;10244485;28;20090;-62
2021/05/14 05:21:55;;;;;;;2.33;1.50;;;;;;;11.66;66.67;99318.81;10246141;28;20059;-61
2021/05/14 05:26:59;;;;;;;1.80;1.50;;;;;;;11.56;66.61;99315.38;10242187;28;20413;-61
2021/05/14 05:32:01;;;;;;;2.90;1.30;;;;;;;11.61;66.91;99321.09;10247086;28;20339;-61
2021/05/14 05:37:03;;;;;;;1.73;1.50;;;;;;;11.80;65.59;99320.09;10247358;28;20416;-62
2021/05/14 05:42:05;;;;;;;2.25;1.60;;;;;;;11.91;65.02;99326.19;10246878;28;20493;-62
2021/05/14 05:47:07;;;;;;;3.72;1.40;;;;;;;11.95;64.30;99327.53;10249036;28;20109;-61
2021/05/14 05:52:08;;;;;;;2.10;1.38;;;;;;;12.24;63.99;99323.78;10246239;28;20043;-61
2021/05/14 05:57:10;;;;;;;2.03;1.92;;;;;;;12.49;62.58;99328.25;10250078;28;20053;-61
2021/05/14 06:02:11;;;;;;;3.83;1.30;;;;;;;12.64;61.62;99325.84;10251332;28;20058;-62
2021/05/14 06:07:13;;;;;;;1.33;1.23;;;;;;;12.90;61.04;99332.94;10253470;28;20476;-63
2021/05/14 06:12:14;;;;;;;1.83;1.40;;;;;;;13.18;59.74;99340.72;10243478;28;20055;-62
2021/05/14 06:17:16;;;;;;;2.33;1.45;;;;;;;13.24;59.51;99340.06;10242508;28;20177;-62
2021/05/14 06:22:17;;;;;;;2.75;1.20;;;;;;;13.58;58.52;99344.50;10248500;28;20066;-62
2021/05/14 06:27:19;;;;;;;2.90;1.20;;;;;;;13.58;57.48;99347.19;10252082;28;20484;-62
2021/05/14 06:32:20;;;;;;;1.40;1.30;;;;;;;13.93;58.18;99339.84;10249926;28;20091;-61
2021/05/14 06:37:22;;;;;;;2.38;1.40;;;;;;;14.03;56.08;99345.03;10243265;28;20046;-66
2021/05/14 06:42:23;;;;;;;3.45;1.05;;;;;;;14.11;55.92;99347.69;10245168;28;20130;-63
2021/05/14 06:47:25;;;;;;;5.13;1.30;;;;;;;14.09;55.60;99355.88;10245884;28;20804;-63
2021/05/14 06:52:26;;;;;;;2.40;1.50;;;;;;;13.95;56.26;99361.94;10238042;28;20062;-62
2021/05/14 06:57:28;;;;;;;2.30;1.23;;;;;;;13.72;56.99;99367.06;10242617;28;20081;-63
2021/05/14 07:02:29;;;;;;;1.83;1.25;;;;;;;13.72;57.57;99367.94;10252379;28;20198;-62
2021/05/14 07:07:34;;;;;;;4.78;1.40;;;;;;;13.70;57.99;99372.59;10260797;28;20054;-62
2021/05/14 07:12:35;;;;;;;3.17;1.30;;;;;;;13.88;58.00;99363.59;10255659;28;20141;-61
2021/05/14 07:17:37;;;;;;;3.75;1.30;;;;;;;14.28;56.81;99369.94;10261736;28;20054;-62
2021/05/14 07:22:40;;;;;;;1.50;1.10;;;;;;;14.38;56.58;99372.41;10261142;28;20716;-63
2021/05/14 07:27:42;;;;;;;1.38;1.27;;;;;;;14.42;56.91;99363.06;10255081;28;20165;-63
2021/05/14 07:32:44;;;;;;;1.55;1.10;;;;;;;14.74;55.77;99372.03;10262197;28;20213;-63
2021/05/14 07:37:46;;;;;;;4.13;1.15;;;;;;;15.02;55.76;99370.59;10234797;28;20234;-63
2021/05/14 07:42:48;;;;;;;2.28;1.30;;;;;;;15.33;54.44;99385.06;10246822;28;20140;-63
2021/05/14 07:47:49;;;;;;;4.65;1.30;;;;;;;15.18;54.33;99361.66;10242206;28;20058;-61
2021/05/14 07:52:51;;;;;;;1.45;1.00;;;;;;;15.45;54.05;99378.28;10251580;28;20125;-62
2021/05/14 07:57:52;;;;;;;2.00;1.20;;;;;;;15.46;54.53;99379.94;10252927;28;20170;-62
2021/05/14 08:02:54;;;;;;;2.03;0.98;;;;;;;15.47;54.63;99376.25;10251333;28;20093;-61
2021/05/14 08:08:09;;;;;;;1.10;1.00;;;;;;;15.54;53.26;99384.44;10248700;28;20074;-63
2021/05/14 08:13:15;;;;;;;1.40;1.15;;;;;;;15.62;53.15;99394.28;10248525;28;20565;-63
2021/05/14 08:18:21;;;;;;;1.63;1.20;;;;;;;15.50;53.13;99383.94;10231504;28;20165;-63
2021/05/14 08:23:22;;;;;;;2.45;1.10;;;;;;;15.87;52.23;99387.75;10239367;28;20082;-62
2021/05/14 08:28:23;;;;;;;3.15;0.95;;;;;;;16.13;52.79;99391.09;10243256;28;20497;-64
2021/05/14 08:33:26;;;;;;;1.80;0.98;;;;;;;15.96;52.41;99379.63;10245059;28;20054;-61
2021/05/14 08:38:29;;;;;;;2.40;0.80;;;;;;;16.35;50.64;99378.63;10246924;28;20089;-61
2021/05/14 08:43:31;;;;;;;1.05;0.80;;;;;;;16.90;49.71;99374.72;10242329;28;20133;-60
2021/05/14 08:48:38;;;;;;;1.55;0.70;;;;;;;17.22;49.56;99385.25;10243366;28;20130;-62
2021/05/14 08:53:44;;;;;;;2.72;1.10;;;;;;;17.32;46.71;99375.03;10241850;28;20844;-62
2021/05/14 08:58:46;;;;;;;2.85;1.10;;;;;;;17.43;47.00;99373.69;10248501;28;20546;-62
2021/05/14 09:04:03;;;;;;;1.02;0.93;;;;;;;17.96;44.78;99368.91;10241510;28;20062;-62
2021/05/14 09:09:12;;;;;;;1.60;0.57;;;;;;;18.33;43.01;99364.25;10244342;28;20046;-63
2021/05/14 09:14:33;;;;;;;3.17;0.90;;;;;;;19.18;41.91;99364.13;10241017;28;20058;-65
2021/05/14 09:19:37;;;;;;;1.50;0.60;;;;;;;19.43;41.07;99364.44;10247419;28;20490;-63
2021/05/14 09:24:40;;;;;;;;;;;;;;;19.14;41.24;99362.88;10235734;28;20057;-62
2021/05/14 09:29:41;;;;;;;2.10;1.13;;;;;;;19.30;41.68;99361.69;10237729;28;19930;-63
2021/05/14 09:34:50;;;;;;;1.02;0.70;;;;;;;19.75;42.72;99358.47;10226678;28;20053;-63
2021/05/14 09:40:31;;;;;;;1.52;0.68;;;;;;;19.89;39.95;99362.06;10242877;28;20125;-63
2021/05/14 09:45:34;;;;;;;1.30;0.57;;;;;;;19.91;38.98;99358.13;10074972;29;20136;-64
2021/05/14 09:50:37;;;;;;;;;;;;;;;19.93;40.62;99356.03;10207326;28;20061;-63
2021/05/14 09:55:45;;;;;;;2.47;0.85;;;;;;;19.92;41.60;99348.13;10259990;28;19930;-63
2021/05/14 10:00:46;;;;;;;4.93;0.65;;;;;;;20.02;40.26;99343.16;10251668;28;20046;-63
2021/05/14 10:05:49;;;;;;;1.65;0.57;;;;;;;19.98;40.22;99347.31;10253735;28;20077;-62
2021/05/14 10:10:51;;;;;;;0.77;0.60;;;;;;;19.78;40.24;99348.13;10249807;28;20090;-63
2021/05/14 10:15:53;;;;;;;0.75;0.40;;;;;;;19.48;41.32;99333.31;10250615;28;20050;-62
2021/05/14 10:20:55;;;;;;;0.93;0.70;;;;;;;20.18;40.88;99333.81;10264216;28;20138;-63
2021/05/14 10:26:06;;;;;;;0.93;0.70;;;;;;;20.04;38.87;99333.00;10253042;28;20057;-62
2021/05/14 10:31:09;;;;;;;2.83;0.70;;;;;;;20.56;38.91;99348.53;10251900;28;20500;-63
2021/05/14 10:36:21;;;;;;;1.52;0.35;;;;;;;20.88;37.99;99330.56;10249873;28;20054;-63
2021/05/14 10:41:24;;;;;;;0.77;0.32;;;;;;;20.77;38.05;99323.97;10252670;28;20108;-62
2021/05/14 10:46:28;;;;;;;0.55;0.20;;;;;;;20.68;38.89;99336.06;10251659;28;20130;-63
2021/05/14 10:51:51;;;;;;;;;;;;;;;20.18;38.93;99330.31;10253276;28;20062;-63
2021/05/14 10:56:54;;;;;;;1.75;0.60;;;;;;;20.10;38.50;99318.66;10254639;28;20315;-63
2021/05/14 11:01:57;;;;;;;0.80;0.40;;;;;;;20.26;39.25;99321.97;10247553;28;20500;-67
2021/05/14 11:06:59;;;;;;;0.50;0.28;;;;;;;20.29;39.25;99326.94;10248231;28;20058;-63
2021/05/14 11:12:08;;;;;;;0.60;0.40;;;;;;;20.03;38.28;99317.00;10252056;28;20117;-63
2021/05/14 11:17:12;;;;;;;1.10;0.38;;;;;;;20.17;39.76;99334.84;10250324;28;20054;-62
2021/05/14 11:22:14;;;;;;;0.95;0.40;;;;;;;19.86;38.19;99328.22;10246587;28;20066;-62
2021/05/14 11:27:43;;;;;;;2.53;0.40;;;;;;;19.78;38.28;99326.53;10249576;28;20058;-63
2021/05/14 11:32:48;;;;;;;1.42;0.38;;;;;;;19.33;38.71;99325.38;10252795;28;20077;-62
2021/05/14 11:37:55;;;;;;;0.95;0.30;;;;;;;20.00;37.81;99320.94;10261723;28;20041;-63
2021/05/14 11:42:59;;;;;;;1.25;0.35;;;;;;;19.76;39.58;99323.19;10261561;28;20086;-63
2021/05/14 11:48:08;;;;;;;0.77;0.57;;;;;;;19.97;39.08;99324.06;10258259;28;20057;-63
2021/05/14 11:53:11;;;;;;;0.40;0.30;;;;;;;19.64;39.31;99318.59;10258479;28;20401;-63
2021/05/14 11:58:13;;;;;;;2.07;0.60;;;;;;;19.41;39.79;99317.09;10260097;28;20054;-63
2021/05/14 12:03:17;;;;;;;2.45;0.40;;;;;;;19.31;39.60;99328.28;10253566;28;20563;-61
2021/05/14 12:08:26;;;;;;;1.00;0.50;;;;;;;19.04;40.66;99325.50;10248866;28;20047;-62
2021/05/14 12:13:29;;;;;;;2.65;1.17;;;;;;;19.07;40.51;99313.47;10253077;28;20050;-63
2021/05/14 12:18:36;;;;;;;1.85;0.40;;;;;;;19.27;40.06;99321.63;10262891;28;20977;-62
2021/05/14 12:23:37;;;;;;;0.80;0.30;;;;;;;20.56;38.63;99316.09;10254615;28;20057;-62
2021/05/14 12:28:42;;;;;;;4.38;0.63;;;;;;;21.36;37.05;99311.22;10258898;28;20138;-62
2021/05/14 12:33:56;;;;;;;1.13;0.20;;;;;;;21.26;37.41;99320.84;10252539;28;20061;-63
2021/05/14 12:39:06;;;;;;;1.45;0.20;;;;;;;21.10;37.01;99316.78;10249272;28;20253;-63
2021/05/14 12:44:09;;;;;;;1.35;0.40;;;;;;;20.89;37.78;99309.78;10254003;28;20357;-63
2021/05/14 12:49:12;;;;;;;1.50;0.40;;;;;;;20.60;39.10;99306.53;10256039;28;20414;-62
2021/05/14 12:54:21;;;;;;;0.60;0.47;;;;;;;20.06;39.15;99317.41;10255140;28;20046;-62
2021/05/14 12:59:49;;;;;;;1.35;0.35;;;;;;;20.38;39.92;99314.88;10258929;28;20046;-62
2021/05/14 13:05:00;;;;;;;1.23;0.30;;;;;;;20.16;40.03;99316.97;10256413;28;20049;-63
2021/05/14 13:10:03;;;;;;;2.03;0.68;;;;;;;20.34;40.16;99313.63;10254827;28;20061;-63
2021/05/14 13:15:06;;;;;;;0.80;0.20;;;;;;;20.82;39.18;99318.75;10252018;28;20062;-64
2021/05/14 13:20:08;;;;;;;1.40;0.38;;;;;;;20.44;39.34;99319.44;10260053;28;20094;-63
2021/05/14 13:25:10;;;;;;;1.55;0.50;;;;;;;19.95;40.07;99343.19;10256570;28;20057;-62
2021/05/14 13:30:13;;;;;;;1.65;0.45;;;;;;;19.58;40.73;99328.34;10258228;28;20081;-62
2021/05/14 13:35:14;;;;;;;1.70;0.40;;;;;;;19.38;39.31;99336.38;10251742;28;20062;-63
2021/05/14 13:40:16;;;;;;;0.55;0.20;;;;;;;19.24;40.26;99324.72;10254544;28;20058;-63
2021/05/14 13:45:18;;;;;;;2.15;0.50;;;;;;;19.05;40.33;99331.69;10251724;28;20050;-62
2021/05/14 13:50:19;;;;;;;1.33;0.40;;;;;;;18.88;41.62;99328.53;10253356;28;20206;-62
2021/05/14 13:55:21;;;;;;;3.42;0.63;;;;;;;18.98;42.29;99326.28;10251507;28;20050;-61
2021/05/14 14:00:23;;;;;;;1.20;0.60;;;;;;;19.65;40.73;99326.50;10256835;28;20050;-63
2021/05/14 14:05:24;;;;;;;0.80;0.28;;;;;;;19.76;37.99;99317.78;10258098;28;20055;-62
2021/05/14 14:10:26;;;;;;;1.45;0.22;;;;;;;20.30;36.89;99323.22;10262186;28;20069;-63
2021/05/14 14:15:28;;;;;;;1.25;0.20;;;;;;;20.60;35.55;99301.13;10256454;28;20252;-64
2021/05/14 14:20:29;;;;;;;0.90;0.30;;;;;;;20.64;33.77;99294.22;10282496;23;20156;-55
2021/05/14 14:25:31;;;;;;;0.45;0.10;;;;;;;20.24;33.46;99305.97;10325977;28;20069;-56
2021/05/14 14:30:34;;;;;;;1.20;0.17;;;;;;;19.79;34.04;99297.66;10311535;28;20070;-56
2021/05/14 14:35:37;;;;;;;0.17;0.10;;;;;;;19.52;34.69;99284.13;10325602;28;20068;-56
2021/05/14 14:40:43;;;;;;;0.28;0.10;;;;;;;19.44;34.94;99287.00;10325865;28;20177;-57
2021/05/14 14:45:47;;;;;;;0.65;0.10;;;;;;;19.55;34.07;99290.97;10325166;28;20085;-54
2021/05/14 14:50:48;;;;;;;6.07;1.95;;;;;;;19.72;34.62;99267.09;10324958;28;20125;-55
2021/05/14 14:55:50;;;;;;;3.95;0.93;;;;;;;19.99;33.86;99267.97;10323185;28;20077;-55
2021/05/14 15:00:52;;;;;;;2.35;1.13;;;;;;;19.71;33.60;99266.28;10325284;28;20411;-55
2021/05/14 15:05:54;;;;;;;2.30;0.22;;;;;;;19.53;34.77;99275.00;10324989;28;20099;-55
2021/05/14 15:10:58;;;;;;;0.40;0.20;;;;;;;19.33;35.71;99280.34;10323448;28;20100;-56
2021/05/14 15:16:00;;;;;;;0.32;0.20;;;;;;;19.23;36.05;99285.28;10315950;28;20169;-55
2021/05/14 15:21:02;;;;;;;0.35;0.20;;;;;;;19.00;36.87;99281.06;10324338;28;20056;-56
2021/05/14 15:26:04;;;;;;;0.57;0.13;;;;;;;18.91;36.55;99276.91;10311570;28;20046;-55
2021/05/14 15:31:05;;;;;;;0.40;0.20;;;;;;;19.12;36.64;99284.03;10323073;28;20458;-56
2021/05/14 15:36:07;;;;;;;1.33;0.20;;;;;;;19.16;37.17;99296.06;10324232;28;20132;-56
2021/05/14 15:41:08;;;;;;;1.90;0.45;;;;;;;18.80;37.83;99267.50;10323380;28;20045;-54
2021/05/14 15:46:10;;;;;;;0.63;0.20;;;;;;;19.02;37.83;99297.91;10323350;28;20454;-55
2021/05/14 15:51:12;;;;;;;0.38;0.20;;;;;;;18.98;37.72;99287.72;10322484;28;20061;-55
2021/05/14 15:56:13;;;;;;;1.88;0.50;;;;;;;19.06;37.15;99296.44;10322341;28;20107;-55
2021/05/14 16:01:15;;;;;;;1.80;0.30;;;;;;;18.92;37.79;99289.34;10322698;28;20130;-55
2021/05/14 16:06:16;;;;;;;1.23;0.20;;;;;;;19.01;38.31;99288.13;10321681;28;20053;-54
2021/05/14 16:11:18;;;;;;;0.70;0.20;;;;;;;19.07;38.23;99270.31;10322860;28;20072;-56
2021/05/14 16:16:19;;;;;;;0.80;0.30;;;;;;;19.17;38.71;99286.09;10322126;28;20049;-54
2021/05/14 16:21:21;;;;;;;2.58;0.32;;;;;;;19.15;38.69;99282.78;10319259;28;20549;-55
2021/05/14 16:26:23;;;;;;;0.70;0.40;;;;;;;19.05;38.63;99270.53;10322674;28;20141;-55
2021/05/14 16:31:25;;;;;;;2.83;0.50;;;;;;;19.09;38.42;99246.66;10321785;28;20057;-56
2021/05/14 16:36:29;;;;;;;0.65;0.40;;;;;;;19.23;37.29;99272.66;10324845;28;20114;-56
2021/05/14 16:41:30;;;;;;;0.93;0.40;;;;;;;19.17;36.88;99269.91;10289787;28;20053;-56
2021/05/14 16:46:47;;;;;;;1.73;0.30;;;;;;;18.62;40.65;99251.88;10300113;28;20045;-55
2021/05/14 16:51:48;;;;;;;1.00;0.40;;;;;;;18.42;42.23;99299.41;10301041;28;20046;-57
2021/05/14 16:56:50;;;;;;;1.13;0.55;;;;;;;18.26;42.98;99289.81;10296220;28;20078;-55
2021/05/14 17:01:52;;;;;;;1.95;0.63;;;;;;;18.15;43.86;99291.16;10305986;28;20934;-56
2021/05/14 17:06:56;;;;;;;2.90;0.60;;;;;;;18.01;44.28;99299.16;10300081;28;20045;-55
2021/05/14 17:11:58;;;;;;;1.20;0.40;;;;;;;17.67;44.56;99281.88;10311736;28;20493;-55
2021/05/14 17:17:01;;;;;;;1.50;0.60;;;;;;;17.72;44.18;99304.69;10313336;28;20143;-56
2021/05/14 17:22:05;;;;;;;1.58;0.68;;;;;;;17.66;44.04;99312.47;10309839;28;20064;-55
2021/05/14 17:27:07;;;;;;;0.88;0.30;;;;;;;17.69;42.94;99313.97;10312301;28;20177;-56
2021/05/14 17:32:09;;;;;;;0.60;0.20;;;;;;;17.47;42.72;99311.28;10303409;28;20131;-56
2021/05/14 17:37:10;;;;;;;2.17;0.28;;;;;;;17.07;42.24;99264.28;10319005;28;20046;-55
2021/05/14 17:42:13;;;;;;;0.57;0.30;;;;;;;17.38;41.95;99308.88;10321625;28;20046;-56
2021/05/14 17:47:16;;;;;;;0.70;0.27;;;;;;;17.33;41.54;99301.41;10321413;28;20053;-54
2021/05/14 17:52:18;;;;;;;0.30;0.28;;;;;;;17.41;41.39;99321.94;10321975;28;20493;-54
2021/05/14 17:57:21;;;;;;;1.80;0.88;;;;;;;17.33;41.99;99322.09;10312378;28;20042;-57
2021/05/14 18:02:23;;;;;;;0.70;0.40;;;;;;;17.16;41.74;99321.47;10311157;28;20147;-56
2021/05/14 18:07:25;;;;;;;0.95;0.30;;;;;;;16.91;41.99;99319.94;10314829;28;20054;-57
2021/05/14 18:12:26;;;;;;;0.95;0.50;;;;;;;17.08;42.48;99314.34;10319320;28;20653;-58
2021/05/14 18:17:28;;;;;;;0.93;0.73;;;;;;;17.21;43.00;99314.50;10309312;28;20843;-59
2021/05/14 18:22:29;;;;;;;1.23;0.57;;;;;;;17.25;42.75;99321.19;10316711;28;20054;-56
2021/05/14 18:27:33;;;;;;;1.40;0.90;;;;;;;17.20;42.64;99320.91;10323073;28;20054;-56
2021/05/14 18:32:35;;;;;;;1.15;0.50;;;;;;;17.28;43.15;99326.19;10318023;28;20097;-56
2021/05/14 18:37:42;;;;;;;1.60;0.73;;;;;;;17.22;42.82;99302.72;10312812;28;20069;-56
2021/05/14 18:42:48;;;;;;;1.20;0.60;;;;;;;17.15;42.65;99328.72;10310016;28;20157;-56
2021/05/14 18:47:49;;;;;;;1.25;0.50;;;;;;;16.92;42.99;99321.63;10312300;28;20058;-57
2021/05/14 18:52:51;;;;;;;1.08;0.40;;;;;;;16.86;43.83;99342.97;10319012;28;20660;-56
2021/05/14 18:57:52;;;;;;;1.25;1.05;;;;;;;16.93;43.57;99341.25;10317343;28;21275;-57
2021/05/14 19:02:55;;;;;;;1.45;0.80;;;;;;;16.88;43.83;99352.56;10321113;28;20139;-57
2021/05/14 19:07:56;;;;;;;1.83;1.13;;;;;;;16.85;43.95;99360.97;10310746;28;20042;-57
2021/05/14 19:12:58;;;;;;;2.85;1.40;;;;;;;16.75;44.48;99363.09;10311622;28;25242;-57
2021/05/14 19:17:59;;;;;;;2.72;1.23;;;;;;;16.26;46.25;99370.66;10316955;28;20053;-56
2021/05/14 19:49:33;;;;;;;0.95;0.73;;;;;;;16.14;49.18;99390.03;10313520;28;20082;-57
2021/05/14 19:54:39;;;;;;;1.45;0.60;;;;;;;16.21;49.71;99418.69;10316099;28;20054;-57
2021/05/14 19:59:41;;;;;;;1.23;0.88;;;;;;;16.11;49.58;99419.94;10314757;28;20407;-58
2021/05/14 20:04:43;;;;;;;1.75;0.90;;;;;;;16.03;49.90;99420.84;10316994;28;20057;-59
2021/05/14 20:09:45;;;;;;;2.20;1.38;;;;;;;15.85;51.43;99432.72;10316956;28;20080;-58
2021/05/14 20:14:46;;;;;;;1.50;1.15;;;;;;;15.96;51.05;99438.66;10317547;28;20467;-58
2021/05/14 20:19:50;;;;;;;2.22;0.90;;;;;;;15.83;51.09;99437.41;10314684;28;20159;-57
2021/05/14 20:24:52;;;;;;;3.63;1.05;;;;;;;15.82;51.80;99442.97;10280113;23;20234;-64
2021/05/14 20:29:56;;;;;;;1.73;0.75;;;;;;;15.70;52.07;99439.81;10193432;28;20055;-65
2021/05/14 20:35:00;;;;;;;1.30;0.80;;;;;;;15.43;53.63;99447.31;10202564;28;20070;-66
2021/05/14 20:40:04;;;;;;;1.00;0.60;;;;;;;15.44;54.03;99443.63;10199819;28;20102;-60
2021/05/14 20:45:08;;;;;;;2.17;0.60;;;;;;;15.37;54.49;99439.97;10194977;28;20054;-61
2021/05/14 20:50:10;;;;;;;;;;;;;;;15.23;55.33;99454.13;10213186;28;20500;-61
2021/05/14 20:55:12;;;;;;;1.05;0.90;;;;;;;15.02;55.53;99458.22;10216861;28;19974;-62
2021/05/14 21:00:16;;;;;;;1.25;0.70;;;;;;;14.88;56.67;99461.56;10223623;28;20059;-61
2021/05/14 21:05:17;;;;;;;2.95;0.82;;;;;;;14.85;56.50;99462.78;10225550;28;20472;-61
2021/05/14 21:10:19;;;;;;;0.85;0.82;;;;;;;14.75;57.48;99468.31;10225525;28;20069;-61
2021/05/14 21:15:22;;;;;;;1.67;0.75;;;;;;;14.69;57.77;99466.31;10220907;28;20063;-63
2021/05/14 21:20:23;;;;;;;1.40;0.93;;;;;;;14.64;58.42;99461.47;10217348;28;20047;-62
2021/05/14 21:25:25;;;;;;;2.95;1.05;;;;;;;14.48;59.10;99466.78;10212590;28;20063;-62
2021/05/14 21:30:27;;;;;;;1.08;0.85;;;;;;;14.29;59.96;99462.59;10214749;28;20039;-60
2021/05/14 21:35:28;;;;;;;1.67;0.93;;;;;;;14.33;60.22;99459.41;10219609;28;20047;-61
2021/05/14 21:40:29;;;;;;;1.38;1.05;;;;;;;14.33;59.72;99458.59;10212126;28;20464;-61
2021/05/14 21:45:29;;;;;;;2.20;1.20;;;;;;;14.20;60.84;99468.97;10218384;28;20051;-61
2021/05/14 21:50:29;;;;;;;1.98;1.00;;;;;;;14.00;61.74;99477.31;10215816;28;20654;-61
2021/05/14 21:55:30;;;;;;;1.67;1.10;;;;;;;13.94;62.14;99472.59;10230171;28;20047;-61
2021/05/14 22:00:30;;;;;;;2.50;1.10;;;;;;;13.93;61.59;99468.25;10212021;28;20059;-61
2021/05/14 22:05:31;;;;;;;1.00;0.77;;;;;;;14.05;61.87;99479.47;10219603;28;20278;-62
2021/05/14 22:10:31;;;;;;;1.33;0.90;;;;;;;13.95;62.00;99477.78;10225819;28;20042;-62
2021/05/14 22:15:32;;;;;;;1.40;0.80;;;;;;;13.78;62.99;99476.06;10225344;28;20035;-61
2021/05/14 22:20:33;;;;;;;1.92;1.00;;;;;;;13.62;63.68;99468.88;10218138;28;20039;-61
2021/05/14 22:25:33;;;;;;;2.65;1.10;;;;;;;13.70;63.33;99468.03;10232507;28;20393;-61
2021/05/14 22:30:34;;;;;;;1.10;0.60;;;;;;;13.64;63.90;99469.53;10229405;28;20412;-61
2021/05/14 22:35:34;;;;;;;0.97;0.80;;;;;;;13.40;64.50;99463.09;10225413;28;20094;-61
2021/05/14 22:40:34;;;;;;;4.90;1.10;;;;;;;13.38;64.55;99473.13;10219655;28;20954;-61
2021/05/14 22:45:35;;;;;;;1.48;1.27;;;;;;;13.40;64.28;99467.59;10229378;28;20492;-61
2021/05/14 22:50:38;;;;;;;2.13;1.30;;;;;;;13.37;64.48;99458.06;10226983;28;20428;-61
2021/05/14 22:55:38;;;;;;;1.15;0.82;;;;;;;13.13;64.94;99456.09;10211971;28;20271;-61
2021/05/14 23:00:39;;;;;;;1.17;0.90;;;;;;;13.28;64.40;99453.66;10216901;28;20051;-61
2021/05/14 23:05:39;;;;;;;1.47;0.97;;;;;;;13.13;64.94;99449.91;10228996;28;20148;-61
2021/05/14 23:10:40;;;;;;;1.33;0.50;;;;;;;13.12;64.81;99449.09;10225677;28;20065;-61
2021/05/14 23:15:41;;;;;;;2.58;1.30;;;;;;;13.01;65.03;99450.19;10226834;28;20063;-62
2021/05/14 23:20:41;;;;;;;2.80;0.82;;;;;;;13.09;65.05;99457.44;10228516;28;20055;-65
2021/05/14 23:25:41;;;;;;;0.83;0.83;;;;;;;12.99;65.54;99454.84;10213997;28;20043;-64
2021/05/14 23:30:42;;;;;;;1.43;0.90;;;;;;;12.85;65.99;99460.78;10207985;28;20291;-61
2021/05/14 23:35:43;;;;;;;1.25;1.00;;;;;;;12.89;65.63;99454.13;10217237;28;20038;-61
2021/05/14 23:40:43;;;;;;;1.52;0.68;;;;;;;12.94;65.26;99438.47;10220980;28;20053;-61
2021/05/14 23:45:43;;;;;;;1.07;0.77;;;;;;;12.91;65.90;99446.81;10224947;28;20035;-61
2021/05/14 23:50:44;;;;;;;1.10;0.88;;;;;;;12.69;66.39;99443.66;10198647;28;20792;-61
2021/05/14 23:55:44;;;;;;;2.05;0.95;;;;;;;12.77;65.82;99448.22;10217461;28;20503;-61
